CheckWX is a tool to help pilots better visualize weather data.  It is not intended as a substitute for an official pre-flight weather briefing.

12:05:38 UTC

KAMA METAR
Rick Husband Amarillo International Airport
Amarillo, Texas, USA
Current

1 hour ago

KAMA 261053Z AUTO 19017KT 10SM CLR 20/15 A3006 RMK AO2 SLP128 T02000150
Observed
Jun-26 @ 10:53 UTC
Wind
  • 190° at 17 KTS
Visibility
10 SM
Flight Rules
VFR
Cloud Levels
  • Clear skies
Temperature
20°C / 68°F
Dewpoint
15°C / 59°F
Humidity
73%
Altimeter
30.06" Hg
Pressure
1017.92 hPa
Previous

2 hours ago

KAMA 260953Z AUTO 19016KT 10SM CLR 21/15 A3005 RMK AO2 SLP128 T02060150
Observed
Jun-26 @ 09:53 UTC
Wind
  • 190° at 16 KTS
Visibility
10 SM
Flight Rules
VFR
Cloud Levels
  • Clear skies
Temperature
21°C / 70°F
Dewpoint
15°C / 59°F
Humidity
69%
Altimeter
30.05" Hg
Pressure
1017.62 hPa
Previous

3 hours ago

KAMA 260853Z AUTO 18017KT 10SM CLR 21/14 A3005 RMK AO2 PK WND 19029/0803 SLP118 T02060144 55002
Observed
Jun-26 @ 08:53 UTC
Wind
  • 180° at 17 KTS
Visibility
10 SM
Flight Rules
VFR
Cloud Levels
  • Clear skies
Temperature
21°C / 70°F
Dewpoint
14°C / 57°F
Humidity
64%
Altimeter
30.05" Hg
Pressure
1017.62 hPa